Kezdőlap
METAR-TAF:

METAR-TAF

Repülőterek :

Tongatapu, Tonga

földrajzi szélesség: 21-14S, földrajzi hosszúság: 175-09W, magasság: 38 m

Jelenlegi meteorológiai megfigyelések

A jelentés 44 perccel ezelõtt készült, 17:00 UTC
Keleti szél 9 kt
Hőmérséklet 25°C
Páratartalom 83%
Légköri nyomás 1010 hPa
Látótávolság 10 km, vagy több
Kevés felhő 1400 lábon
Szórványos felhőzet 12000 lábon
Szakadozott felhőzet 29000 lábon

METAR: NFTF 151700Z 09009KT 9999 FEW014 SCT120 BKN290 25/22 Q1010

Idő: 06:44 (17:44 UTC)

Előrejelzés

A jelentés 36 perccel ezelõtt készült, 17:08 UTC
Az előrejelzés 15-én 18 óra UTC és 16-én 18 óra UTC között érvényes
Keleti szél 11 kt
Látótávolság 10 km, vagy több
Szórványos felhőzet 1500 lábon
Szórványos felhőzet 10000 lábon

TAF: NFTF 151708Z 1518/1618 09011KT 9999 SCT015 SCT100

Meteorológiai megfigyelések és előrejelzések több, mint 4000 repülőtéren (METAR és TAF jelentéseket).

A térképen piros és sárga pontok jelzik az elérhető meteorológiai állomásokat.

Mozgassa az egeret a pont fölött, hogy megjelenjen az állomás neve.

Azután kattintson az időjárási megfigyelések és előrejelzések megtekintéséhez.

A térkép megváltoztatása: kattintson a fekete keresztel jelölt zöld gombra ráközelítéshez, a vonallal jelölt zöld gombra távolításhoz, vagy a zöld nyilakra a szomszédos térképek eléréséhez.


METAR-TAF: